createdAt,value
2017-08-28T00:04:51.756Z,0.0
2017-08-28T00:15:07.040Z,0.0
2017-08-28T00:25:23.794Z,0.0
2017-08-28T00:35:39.423Z,0.0
2017-08-28T00:45:54.861Z,0.0
2017-08-28T00:56:10.873Z,0.0
2017-08-28T01:06:27.008Z,0.0
2017-08-28T01:16:42.405Z,0.0
2017-08-28T01:26:58.682Z,0.0
2017-08-28T01:37:14.804Z,0.0
2017-08-28T01:48:01.486Z,0.0
2017-08-28T01:58:17.818Z,0.0
2017-08-28T02:08:34.202Z,0.0
2017-08-28T02:19:01.324Z,0.0
2017-08-28T02:29:17.577Z,0.0
2017-08-28T02:39:33.709Z,0.0
2017-08-28T02:50:19.716Z,0.0
2017-08-28T03:00:35.786Z,0.0
2017-08-28T03:10:51.278Z,0.0
2017-08-28T03:21:07.307Z,0.0
2017-08-28T03:31:23.427Z,0.0
2017-08-28T03:41:39.944Z,0.0
2017-08-28T03:51:56.118Z,0.0
2017-08-28T04:02:12.373Z,0.0
2017-08-28T04:12:28.553Z,8.0
2017-08-28T04:22:44.802Z,28.0
2017-08-28T04:33:00.642Z,104.0
2017-08-28T04:43:16.130Z,268.0
2017-08-28T04:53:32.223Z,532.0
2017-08-28T05:03:48.596Z,832.0
2017-08-28T05:14:04.623Z,1168.0
2017-08-28T05:24:20.437Z,1536.0
2017-08-28T05:34:36.400Z,1912.0
2017-08-28T05:44:52.551Z,2316.0
2017-08-28T05:55:08.767Z,2732.0
2017-08-28T06:05:25.415Z,3156.0
2017-08-28T06:15:43.994Z,3612.0
2017-08-28T06:26:00.188Z,4068.0
2017-08-28T06:36:16.386Z,4732.0
2017-08-28T06:46:32.692Z,5252.0
2017-08-28T06:57:19.414Z,6448.0
2017-08-28T07:07:35.729Z,6680.0
2017-08-28T07:17:51.976Z,7332.0
2017-08-28T07:28:08.184Z,10992.0
2017-08-28T07:38:24.293Z,17984.0
2017-08-28T07:48:48.725Z,26336.0
2017-08-28T07:59:06.142Z,25856.0
2017-08-28T08:09:52.591Z,26816.0
2017-08-28T08:20:08.908Z,28416.0
2017-08-28T08:30:25.026Z,32800.0
2017-08-28T08:40:44.550Z,38048.0
2017-08-28T08:51:05.003Z,35680.0
2017-08-28T09:01:20.889Z,42048.0
2017-08-28T09:11:38.675Z,39200.0
2017-08-28T09:21:57.165Z,45888.0
2017-08-28T09:32:13.799Z,49088.0
2017-08-28T09:43:03.395Z,51904.0
2017-08-28T09:53:19.601Z,52800.0
2017-08-28T10:03:35.898Z,55424.0
2017-08-28T10:13:53.110Z,59872.0
2017-08-28T10:24:09.496Z,60832.0
2017-08-28T10:34:25.763Z,59712.0
2017-08-28T10:44:42.166Z,57600.0
2017-08-28T10:54:58.221Z,59456.0
2017-08-28T11:05:15.703Z,65760.0
2017-08-28T11:15:32.041Z,62176.0
2017-08-28T11:26:20.815Z,57984.0
2017-08-28T11:37:07.291Z,60480.0
2017-08-28T11:47:24.006Z,65856.0
2017-08-28T11:57:40.710Z,63456.0
2017-08-28T12:07:57.202Z,66176.0
2017-08-28T12:18:56.764Z,65152.0
2017-08-28T12:29:13.270Z,58176.0
2017-08-28T12:40:00.955Z,61280.0
2017-08-28T12:50:58.473Z,54304.0
2017-08-28T13:01:32.644Z,52768.0
2017-08-28T13:11:52.950Z,52128.0
2017-08-28T13:22:48.035Z,47584.0
2017-08-28T13:33:04.076Z,51936.0
2017-08-28T13:43:20.404Z,50496.0
2017-08-28T13:53:36.423Z,23968.0
2017-08-28T14:03:52.766Z,21408.0
2017-08-28T14:14:09.157Z,21984.0
2017-08-28T14:24:25.365Z,20576.0
2017-08-28T14:34:41.501Z,19232.0
2017-08-28T14:44:57.675Z,41024.0
2017-08-28T14:55:13.849Z,26944.0
2017-08-28T15:05:30.041Z,21120.0
2017-08-28T15:15:46.442Z,15712.0
2017-08-28T15:26:02.549Z,12756.0
2017-08-28T15:36:18.842Z,8440.0
2017-08-28T15:46:36.319Z,6732.0
2017-08-28T15:56:53.264Z,6528.0
2017-08-28T16:07:09.449Z,6556.0
2017-08-28T16:17:25.776Z,5660.0
2017-08-28T16:27:43.095Z,4988.0
2017-08-28T16:38:29.772Z,4012.0
2017-08-28T16:48:45.937Z,3356.0
2017-08-28T16:59:02.280Z,3128.0
2017-08-28T17:09:18.260Z,2388.0
2017-08-28T17:19:37.009Z,2516.0
2017-08-28T17:29:52.889Z,2196.0
2017-08-28T17:40:09.321Z,1612.0
2017-08-28T17:50:25.261Z,1388.0
2017-08-28T18:00:41.442Z,988.0
2017-08-28T18:10:57.732Z,620.0
2017-08-28T18:21:14.030Z,308.0
2017-08-28T18:31:30.109Z,144.0
2017-08-28T18:41:43.387Z,36.0
2017-08-28T18:52:29.970Z,4.0
2017-08-28T19:02:46.291Z,0.0
2017-08-28T19:13:02.890Z,0.0
2017-08-28T19:23:18.671Z,0.0
2017-08-28T19:33:34.857Z,0.0
2017-08-28T19:43:51.023Z,0.0
2017-08-28T19:54:07.621Z,0.0
2017-08-28T20:04:23.718Z,0.0
2017-08-28T20:14:39.966Z,0.0
2017-08-28T20:24:55.930Z,0.0
2017-08-28T20:35:11.861Z,0.0
2017-08-28T20:45:28.293Z,0.0
2017-08-28T20:56:16.017Z,0.0
2017-08-28T21:06:32.524Z,0.0
2017-08-28T21:16:48.370Z,0.0
2017-08-28T21:27:04.660Z,0.0
